createdAt,value
2022-07-31T00:22:09.874Z,17.60
2022-07-31T00:24:36.811Z,17.40
2022-07-31T00:34:26.672Z,17.30
2022-07-31T00:36:53.482Z,17.20
2022-07-31T00:39:20.356Z,17.20
2022-07-31T00:41:47.767Z,17.20
2022-07-31T01:13:56.644Z,17.20
2022-07-31T01:16:27.581Z,17.10
2022-07-31T01:18:56.957Z,17.10
2022-07-31T01:21:31.997Z,17.10
2022-07-31T01:32:16.364Z,17.00
2022-07-31T01:34:57.723Z,16.90
2022-07-31T01:40:05.265Z,16.90
2022-07-31T01:42:36.728Z,16.90
2022-07-31T01:45:06.319Z,16.90
2022-07-31T01:47:34.576Z,16.90
2022-07-31T01:50:02.780Z,16.90
2022-07-31T01:52:31.631Z,16.80
2022-07-31T01:54:59.772Z,16.90
2022-07-31T01:57:29.456Z,16.90
2022-07-31T01:59:59.884Z,16.80
2022-07-31T02:02:29.091Z,16.80
2022-07-31T02:04:57.422Z,16.80
2022-07-31T02:15:02.929Z,16.80
2022-07-31T02:32:42.368Z,16.50
2022-07-31T02:54:53.603Z,16.40
2022-07-31T03:02:14.815Z,16.30
2022-07-31T03:04:42.456Z,16.20
2022-07-31T03:07:09.687Z,16.20
2022-07-31T03:09:36.774Z,16.20
2022-07-31T03:12:03.963Z,16.10
2022-07-31T03:14:34.305Z,16.10
2022-07-31T03:17:02.907Z,16.00
2022-07-31T03:19:30.978Z,16.00
2022-07-31T03:21:58.153Z,16.00
2022-07-31T03:24:26.927Z,16.00
2022-07-31T03:26:53.990Z,16.00
2022-07-31T03:29:39.014Z,16.00
2022-07-31T03:32:07.673Z,16.00
2022-07-31T03:34:34.608Z,15.90
2022-07-31T03:37:01.546Z,15.90
2022-07-31T03:39:28.436Z,15.90
2022-07-31T03:41:56.892Z,15.90
2022-07-31T03:44:25.821Z,15.90
2022-07-31T03:49:20.914Z,15.90
2022-07-31T03:51:47.792Z,15.80
2022-07-31T03:54:14.856Z,15.80
2022-07-31T03:56:46.478Z,15.80
2022-07-31T03:59:15.898Z,15.80
2022-07-31T04:02:07.622Z,15.80
2022-07-31T04:04:30.608Z,15.70
2022-07-31T04:06:57.564Z,15.70
2022-07-31T04:09:24.335Z,15.70
2022-07-31T04:11:51.145Z,15.70
2022-07-31T04:14:18.002Z,15.70
2022-07-31T04:16:45.135Z,15.70
2022-07-31T04:19:11.988Z,15.70
2022-07-31T04:21:38.765Z,15.70
2022-07-31T04:24:06.127Z,15.70
2022-07-31T04:29:00.178Z,15.70
2022-07-31T04:31:26.966Z,15.70
2022-07-31T04:33:56.865Z,15.70
2022-07-31T04:36:30.176Z,15.70
2022-07-31T04:39:01.140Z,15.70
2022-07-31T04:41:28.620Z,15.60
2022-07-31T04:43:57.742Z,15.60
2022-07-31T04:46:24.817Z,15.60
2022-07-31T04:48:51.761Z,15.60
2022-07-31T04:51:23.370Z,15.70
2022-07-31T04:53:50.833Z,15.70
2022-07-31T04:56:34.147Z,15.70
2022-07-31T04:59:05.963Z,15.70
2022-07-31T05:01:34.012Z,15.70
2022-07-31T05:04:01.326Z,15.70
2022-07-31T05:06:49.109Z,15.80
2022-07-31T05:09:23.755Z,15.80
2022-07-31T05:11:52.926Z,15.80
2022-07-31T05:14:21.863Z,15.80
2022-07-31T05:16:49.610Z,15.80
2022-07-31T05:19:16.955Z,15.90
2022-07-31T05:21:53.274Z,15.90
2022-07-31T05:24:32.429Z,16.00
2022-07-31T05:27:04.348Z,16.10
2022-07-31T05:29:32.978Z,16.20
2022-07-31T05:32:01.099Z,16.30
2022-07-31T05:37:01.285Z,16.40
2022-07-31T05:39:28.786Z,16.50
2022-07-31T05:41:55.592Z,16.60
2022-07-31T05:44:22.421Z,16.70
2022-07-31T05:49:15.951Z,16.90
2022-07-31T05:51:43.910Z,17.00
2022-07-31T05:54:10.800Z,17.00
2022-07-31T05:56:37.911Z,17.10
2022-07-31T05:59:04.718Z,17.10
2022-07-31T06:01:31.534Z,17.20
2022-07-31T06:03:58.367Z,17.30
2022-07-31T06:06:25.194Z,17.50
2022-07-31T06:08:53.908Z,17.40
2022-07-31T06:11:21.049Z,17.50
2022-07-31T06:13:47.835Z,17.60
2022-07-31T06:16:15.545Z,17.60
2022-07-31T06:18:42.880Z,17.70
2022-07-31T06:23:37.103Z,17.80
2022-07-31T06:26:04.895Z,17.80
2022-07-31T06:31:21.126Z,17.90
2022-07-31T06:33:49.644Z,18.00
2022-07-31T06:46:48.976Z,18.10
2022-07-31T06:49:17.099Z,18.50
2022-07-31T06:51:44.558Z,18.50
2022-07-31T07:01:35.227Z,18.70
2022-07-31T10:04:57.364Z,25.40
2022-07-31T10:10:01.786Z,25.90
2022-07-31T10:12:31.030Z,26.00
2022-07-31T10:15:03.914Z,26.10
2022-07-31T10:17:36.071Z,26.30
2022-07-31T10:20:05.984Z,26.50
2022-07-31T10:32:35.227Z,27.30
2022-07-31T12:18:02.930Z,29.80
2022-07-31T12:20:35.873Z,30.20
2022-07-31T12:23:06.123Z,30.30
2022-07-31T12:25:45.657Z,30.20
2022-07-31T12:28:14.860Z,30.40
2022-07-31T12:30:42.877Z,30.40
2022-07-31T12:33:11.540Z,30.30
2022-07-31T12:35:56.143Z,30.10
2022-07-31T12:38:47.769Z,30.20
2022-07-31T12:41:14.826Z,30.20
2022-07-31T12:43:51.642Z,30.20
2022-07-31T12:46:20.294Z,30.20
2022-07-31T12:48:47.111Z,30.20
2022-07-31T12:51:14.194Z,30.20
2022-07-31T12:53:41.075Z,30.20
2022-07-31T12:56:12.408Z,30.10
2022-07-31T12:58:39.205Z,30.10
2022-07-31T13:01:06.061Z,30.00
2022-07-31T13:03:45.910Z,29.90
2022-07-31T13:06:14.425Z,29.80
2022-07-31T13:08:43.916Z,29.70
2022-07-31T13:11:11.413Z,29.70
2022-07-31T13:13:38.278Z,29.50
2022-07-31T13:16:05.623Z,29.50
2022-07-31T13:18:33.950Z,29.30
2022-07-31T13:21:00.897Z,29.30
2022-07-31T13:23:28.057Z,29.10
2022-07-31T13:25:55.080Z,29.00
2022-07-31T13:28:21.956Z,29.00
2022-07-31T13:30:54.606Z,28.90
2022-07-31T13:33:22.046Z,28.80
2022-07-31T13:35:49.021Z,28.70
2022-07-31T13:38:15.979Z,28.60
2022-07-31T13:41:01.667Z,28.60
2022-07-31T13:43:28.541Z,28.60
2022-07-31T13:45:55.374Z,28.50
2022-07-31T13:48:22.308Z,28.50
2022-07-31T13:50:49.471Z,28.40
2022-07-31T13:53:16.429Z,28.50
2022-07-31T13:55:46.063Z,28.40
2022-07-31T13:58:16.630Z,28.40
2022-07-31T14:00:43.494Z,28.40
2022-07-31T14:03:10.386Z,28.40
2022-07-31T14:05:40.264Z,28.40
2022-07-31T14:08:32.888Z,28.40
2022-07-31T14:10:55.991Z,28.40
2022-07-31T14:13:23.228Z,28.30
2022-07-31T14:15:50.089Z,28.30
2022-07-31T14:18:16.918Z,28.30
2022-07-31T14:20:43.707Z,28.20
2022-07-31T14:23:10.620Z,28.20
2022-07-31T14:25:38.807Z,28.20
2022-07-31T14:28:06.980Z,28.10
2022-07-31T14:35:29.092Z,28.00
2022-07-31T15:00:15.132Z,25.30
2022-07-31T15:08:00.677Z,24.70
2022-07-31T15:15:25.876Z,24.40
2022-07-31T15:17:55.774Z,24.00
2022-07-31T15:20:28.918Z,23.80
2022-07-31T15:22:59.796Z,23.70
2022-07-31T15:25:26.658Z,23.50
2022-07-31T15:27:53.452Z,23.20
2022-07-31T15:50:08.727Z,22.70
2022-07-31T15:52:35.770Z,22.30
2022-07-31T15:55:03.215Z,22.20
2022-07-31T15:57:30.116Z,22.20
2022-07-31T16:02:25.707Z,22.20
2022-07-31T16:12:47.310Z,22.00
2022-07-31T16:15:15.998Z,21.70
2022-07-31T16:45:27.072Z,21.60
2022-07-31T16:50:21.266Z,21.20
2022-07-31T16:58:11.276Z,20.80
2022-07-31T17:05:53.887Z,20.70
2022-07-31T17:08:20.789Z,20.60
2022-07-31T17:23:14.064Z,20.60
2022-07-31T17:25:42.640Z,20.50
2022-07-31T17:28:14.731Z,20.40
2022-07-31T17:30:42.316Z,20.40
2022-07-31T17:33:09.340Z,20.40
2022-07-31T17:35:36.649Z,20.40
2022-07-31T17:38:03.558Z,20.40
2022-07-31T17:40:43.072Z,20.40
2022-07-31T17:43:10.550Z,20.30
2022-07-31T17:48:27.605Z,20.30
2022-07-31T17:50:54.454Z,20.30
2022-07-31T17:53:31.120Z,20.30
2022-07-31T17:56:13.122Z,20.40
2022-07-31T17:58:41.870Z,20.30
2022-07-31T18:03:36.126Z,20.30
2022-07-31T18:06:04.403Z,20.30
2022-07-31T18:08:31.613Z,20.20
2022-07-31T18:18:22.280Z,20.20
2022-07-31T18:20:49.160Z,20.10
2022-07-31T18:23:16.028Z,20.10
2022-07-31T19:05:31.845Z,20.00
2022-07-31T19:15:25.626Z,19.50
2022-07-31T19:17:52.520Z,19.30
2022-07-31T19:23:14.500Z,19.20
2022-07-31T19:25:59.546Z,19.20
2022-07-31T19:28:31.172Z,19.20
2022-07-31T19:30:58.954Z,19.10
2022-07-31T19:33:25.919Z,19.20
2022-07-31T19:35:58.400Z,19.10
2022-07-31T19:38:28.188Z,19.00
2022-07-31T19:40:55.140Z,18.90
2022-07-31T19:45:58.777Z,18.90
2022-07-31T19:48:36.609Z,18.80
2022-07-31T19:51:04.505Z,18.80
2022-07-31T19:53:31.780Z,18.70
2022-07-31T19:56:00.435Z,18.80
2022-07-31T19:58:27.246Z,18.80
2022-07-31T20:00:54.071Z,18.70
2022-07-31T20:33:56.566Z,18.50
2022-07-31T20:36:25.810Z,18.50
2022-07-31T20:38:53.026Z,18.50
2022-07-31T20:41:20.096Z,18.40
2022-07-31T20:43:46.922Z,18.40
2022-07-31T20:46:15.851Z,18.50
2022-07-31T20:48:44.524Z,18.40
2022-07-31T20:51:19.144Z,18.40
2022-07-31T20:53:47.360Z,18.40
2022-07-31T20:56:14.323Z,18.40
2022-07-31T20:58:41.491Z,18.40
2022-07-31T21:01:08.647Z,18.40
2022-07-31T21:03:35.718Z,18.40
2022-07-31T21:06:02.559Z,18.40
2022-07-31T21:08:29.370Z,18.40
2022-07-31T21:10:56.415Z,18.40
2022-07-31T21:13:28.511Z,18.40
2022-07-31T21:15:56.197Z,18.40
2022-07-31T21:18:23.453Z,18.40
2022-07-31T21:20:53.452Z,18.40
2022-07-31T21:23:28.003Z,18.40
2022-07-31T21:25:58.737Z,18.40
2022-07-31T21:28:27.904Z,18.40
2022-07-31T21:30:56.243Z,18.30
2022-07-31T21:33:27.440Z,18.30
2022-07-31T21:35:55.127Z,18.40
2022-07-31T21:38:22.815Z,18.40
2022-07-31T21:40:50.087Z,18.30
2022-07-31T21:43:22.052Z,18.30
2022-07-31T21:45:57.630Z,18.30
2022-07-31T21:48:30.217Z,18.30
2022-07-31T21:50:57.476Z,18.30
2022-07-31T21:53:24.806Z,18.30
2022-07-31T21:55:52.014Z,18.30
2022-07-31T21:58:18.954Z,18.30
2022-07-31T22:00:45.961Z,18.30
2022-07-31T22:03:12.894Z,18.30
2022-07-31T22:05:58.205Z,18.30
2022-07-31T22:08:25.043Z,18.30
2022-07-31T22:10:52.328Z,18.30
2022-07-31T22:13:19.895Z,18.30
2022-07-31T22:15:51.421Z,18.30
2022-07-31T22:18:32.208Z,18.30
2022-07-31T22:21:00.663Z,18.30
2022-07-31T22:23:28.406Z,18.30
2022-07-31T22:25:55.819Z,18.30
2022-07-31T22:28:23.902Z,18.30
2022-07-31T22:30:51.423Z,18.30
2022-07-31T22:33:18.900Z,18.30
2022-07-31T22:35:58.374Z,18.30
2022-07-31T22:38:27.964Z,18.30
2022-07-31T22:40:55.073Z,18.30
2022-07-31T22:44:09.615Z,18.30
2022-07-31T22:46:11.748Z,18.30
2022-07-31T22:48:40.682Z,18.30
2022-07-31T22:51:08.489Z,18.30
2022-07-31T22:53:36.134Z,18.30
2022-07-31T22:56:03.141Z,18.30
2022-07-31T22:58:29.947Z,18.20
2022-07-31T23:00:56.948Z,18.20
2022-07-31T23:03:23.683Z,18.20
2022-07-31T23:06:05.327Z,18.20
2022-07-31T23:08:37.259Z,18.20
2022-07-31T23:11:04.104Z,18.20
2022-07-31T23:13:30.890Z,18.10
2022-07-31T23:15:57.803Z,18.10
2022-07-31T23:18:26.463Z,18.10
2022-07-31T23:20:53.348Z,18.10
2022-07-31T23:23:20.178Z,18.10
2022-07-31T23:25:46.928Z,18.20
2022-07-31T23:28:13.740Z,18.10
2022-07-31T23:30:40.651Z,18.10
2022-07-31T23:33:07.546Z,18.10
2022-07-31T23:35:34.422Z,18.10
2022-07-31T23:38:04.300Z,18.10
2022-07-31T23:40:31.198Z,18.20
2022-07-31T23:42:57.991Z,18.10
2022-07-31T23:45:24.830Z,18.10
2022-07-31T23:47:51.582Z,18.10
2022-07-31T23:50:18.543Z,18.10
2022-07-31T23:52:45.976Z,18.10
2022-07-31T23:55:13.174Z,18.10
2022-07-31T23:57:40.667Z,18.10
